createdAt,value
2023-05-21T00:00:53.845Z,1.10
2023-05-21T00:03:21.109Z,1.15
2023-05-21T00:08:14.551Z,1.00
2023-05-21T00:10:41.091Z,1.10
2023-05-21T00:13:09.068Z,1.10
2023-05-21T00:15:35.926Z,1.00
2023-05-21T00:18:02.713Z,1.02
2023-05-21T00:20:32.274Z,1.20
2023-05-21T00:22:59.597Z,1.08
2023-05-21T00:25:26.205Z,1.10
2023-05-21T00:27:52.815Z,1.17
2023-05-21T00:30:19.556Z,1.00
2023-05-21T00:32:46.636Z,1.27
2023-05-21T00:35:13.420Z,1.13
2023-05-21T00:37:40.683Z,1.30
2023-05-21T00:40:08.884Z,1.25
2023-05-21T00:42:40.168Z,1.20
2023-05-21T00:45:07.975Z,1.20
2023-05-21T00:47:35.005Z,1.10
2023-05-21T00:50:03.593Z,1.15
2023-05-21T00:52:30.239Z,1.20
2023-05-21T00:54:57.098Z,1.20
2023-05-21T00:57:25.618Z,1.10
2023-05-21T00:59:53.023Z,1.20
2023-05-21T01:02:19.864Z,1.10
2023-05-21T01:04:46.530Z,1.20
2023-05-21T01:07:14.514Z,1.10
2023-05-21T01:09:42.540Z,1.10
2023-05-21T01:12:09.724Z,1.17
2023-05-21T01:14:37.622Z,1.20
2023-05-21T01:17:05.491Z,1.17
2023-05-21T01:19:35.540Z,1.30
2023-05-21T01:22:06.227Z,1.20
2023-05-21T01:24:32.811Z,1.05
2023-05-21T01:27:01.398Z,1.40
2023-05-21T01:29:27.952Z,1.30
2023-05-21T01:32:06.652Z,1.20
2023-05-21T01:34:53.540Z,1.20
2023-05-21T01:37:22.735Z,1.33
2023-05-21T01:39:55.924Z,1.23
2023-05-21T01:42:23.592Z,1.30
2023-05-21T01:44:52.008Z,1.20
2023-05-21T01:47:18.935Z,1.15
2023-05-21T01:49:45.946Z,1.10
2023-05-21T01:52:12.979Z,1.20
2023-05-21T01:54:39.592Z,1.10
2023-05-21T01:57:06.676Z,1.30
2023-05-21T01:59:33.495Z,1.20
2023-05-21T02:02:00.017Z,1.10
2023-05-21T02:04:26.751Z,1.20
2023-05-21T02:06:54.857Z,1.40
2023-05-21T02:09:21.472Z,1.38
2023-05-21T02:11:48.418Z,1.27
2023-05-21T02:14:14.949Z,1.40
2023-05-21T02:16:41.795Z,1.27
2023-05-21T02:19:10.470Z,1.30
2023-05-21T02:21:37.167Z,1.30
2023-05-21T02:24:03.777Z,1.30
2023-05-21T02:26:30.346Z,1.20
2023-05-21T02:28:56.966Z,1.02
2023-05-21T02:31:23.489Z,1.52
2023-05-21T02:33:50.162Z,1.25
2023-05-21T02:36:18.859Z,1.30
2023-05-21T02:38:45.355Z,1.20
2023-05-21T02:41:12.231Z,1.33
2023-05-21T02:43:39.265Z,1.20
2023-05-21T02:46:06.641Z,1.20
2023-05-21T02:48:33.323Z,1.40
2023-05-21T02:51:00.032Z,1.15
2023-05-21T02:53:26.778Z,1.30
2023-05-21T02:55:53.451Z,1.38
2023-05-21T02:58:23.479Z,1.27
2023-05-21T03:00:50.285Z,1.30
2023-05-21T03:03:18.087Z,1.50
2023-05-21T03:05:45.862Z,1.52
2023-05-21T03:08:12.532Z,1.33
2023-05-21T03:10:39.708Z,1.25
2023-05-21T03:13:09.504Z,1.38
2023-05-21T03:15:38.724Z,1.38
2023-05-21T03:18:05.712Z,1.40
2023-05-21T03:20:33.360Z,1.50
2023-05-21T03:23:04.138Z,1.33
2023-05-21T03:25:30.952Z,1.60
2023-05-21T03:27:57.526Z,1.30
2023-05-21T03:30:46.495Z,1.25
2023-05-21T03:33:36.518Z,1.50
2023-05-21T03:36:15.095Z,1.63
2023-05-21T03:41:08.981Z,1.50
2023-05-21T03:43:36.341Z,1.70
2023-05-21T03:46:03.578Z,1.50
2023-05-21T03:48:58.790Z,1.30
2023-05-21T03:51:27.554Z,1.33
2023-05-21T03:53:54.398Z,1.50
2023-05-21T03:56:21.626Z,1.40
2023-05-21T03:58:48.290Z,1.50
2023-05-21T04:01:15.562Z,1.70
2023-05-21T04:03:42.309Z,1.33
2023-05-21T04:06:10.245Z,1.60
2023-05-21T04:08:38.601Z,1.42
2023-05-21T04:11:05.339Z,1.73
2023-05-21T04:13:32.247Z,1.40
2023-05-21T04:15:58.909Z,1.38
2023-05-21T04:18:26.884Z,1.33
2023-05-21T04:20:53.823Z,1.35
2023-05-21T04:23:23.624Z,1.35
2023-05-21T04:25:51.514Z,1.70
2023-05-21T04:28:21.407Z,1.48
2023-05-21T04:30:48.296Z,1.55
2023-05-21T04:33:20.242Z,1.58
2023-05-21T04:35:50.081Z,1.60
2023-05-21T04:38:20.005Z,1.40
2023-05-21T04:40:50.993Z,1.50
2023-05-21T04:43:17.995Z,1.48
2023-05-21T04:45:45.196Z,1.40
2023-05-21T04:48:12.709Z,1.50
2023-05-21T04:50:43.739Z,1.30
2023-05-21T04:53:10.362Z,1.42
2023-05-21T04:55:39.827Z,1.40
2023-05-21T04:58:07.222Z,1.30
2023-05-21T05:00:34.347Z,1.45
2023-05-21T05:03:01.167Z,1.30
2023-05-21T05:05:27.776Z,1.52
2023-05-21T05:07:54.426Z,1.58
2023-05-21T05:10:20.976Z,1.30
2023-05-21T05:12:48.670Z,1.35
2023-05-21T05:15:15.984Z,1.30
2023-05-21T05:20:10.706Z,1.50
2023-05-21T05:22:37.699Z,1.40
2023-05-21T05:25:04.402Z,1.40
2023-05-21T05:27:31.132Z,1.75
2023-05-21T05:29:57.703Z,1.33
2023-05-21T05:32:24.442Z,1.42
2023-05-21T05:34:51.390Z,1.45
2023-05-21T05:37:19.390Z,1.40
2023-05-21T05:39:45.819Z,1.40
2023-05-21T05:42:13.560Z,1.38
2023-05-21T05:44:40.798Z,1.50
2023-05-21T05:47:10.775Z,1.35
2023-05-21T05:49:38.714Z,1.30
2023-05-21T05:52:05.757Z,1.35
2023-05-21T05:56:59.232Z,1.50
2023-05-21T05:59:28.547Z,1.40
2023-05-21T06:01:59.906Z,1.40
2023-05-21T06:04:29.853Z,1.30
2023-05-21T06:06:57.594Z,1.20
2023-05-21T06:09:24.842Z,1.45
2023-05-21T06:14:18.107Z,1.42
2023-05-21T06:16:44.745Z,1.38
2023-05-21T06:19:11.326Z,1.65
2023-05-21T06:21:37.933Z,1.50
2023-05-21T06:24:05.940Z,1.60
2023-05-21T06:26:32.638Z,1.45
2023-05-21T06:31:26.208Z,1.50
2023-05-21T06:33:53.939Z,1.40
2023-05-21T06:36:21.513Z,1.50
2023-05-21T06:41:14.541Z,1.60
2023-05-21T06:43:53.988Z,1.60
2023-05-21T06:46:39.334Z,1.63
2023-05-21T06:49:08.210Z,1.60
2023-05-21T06:51:35.150Z,1.52
2023-05-21T06:54:03.780Z,1.50
2023-05-21T06:56:30.563Z,1.45
2023-05-21T06:58:57.310Z,1.50
2023-05-21T07:01:24.690Z,1.55
2023-05-21T07:03:51.281Z,1.50
2023-05-21T07:06:18.303Z,1.40
2023-05-21T07:11:11.897Z,1.40
2023-05-21T07:13:38.602Z,1.50
2023-05-21T07:16:05.488Z,1.58
2023-05-21T07:18:32.256Z,1.60
2023-05-21T07:20:59.189Z,1.52
2023-05-21T07:23:26.741Z,1.50
2023-05-21T07:25:53.756Z,1.50
2023-05-21T07:28:20.610Z,1.85
2023-05-21T07:30:47.230Z,1.50
2023-05-21T07:33:20.730Z,1.48
2023-05-21T07:35:47.945Z,1.52
2023-05-21T07:38:14.618Z,1.50
2023-05-21T07:40:41.203Z,1.50
2023-05-21T07:43:08.017Z,1.40
2023-05-21T07:45:36.028Z,1.45
2023-05-21T07:48:04.363Z,1.50
2023-05-21T07:50:32.958Z,1.42
2023-05-21T07:52:59.765Z,1.50
2023-05-21T07:55:26.516Z,1.60
2023-05-21T08:00:25.869Z,1.60
2023-05-21T08:02:56.521Z,1.58
2023-05-21T08:05:25.672Z,1.50
2023-05-21T08:07:52.681Z,1.70
2023-05-21T08:10:20.200Z,1.50
2023-05-21T08:12:48.705Z,1.58
2023-05-21T08:15:15.486Z,1.50
2023-05-21T08:17:44.972Z,1.73
2023-05-21T08:22:40.258Z,1.90
2023-05-21T08:27:34.091Z,1.60
2023-05-21T08:30:00.841Z,1.70
2023-05-21T08:32:27.585Z,1.75
2023-05-21T08:34:54.574Z,1.63
2023-05-21T08:37:44.695Z,1.77
2023-05-21T08:40:35.653Z,1.60
2023-05-21T08:43:02.285Z,1.40
2023-05-21T08:45:41.497Z,1.67
2023-05-21T08:48:09.309Z,1.58
2023-05-21T08:50:36.625Z,1.50
2023-05-21T08:53:15.973Z,1.60
2023-05-21T08:55:51.928Z,1.70
2023-05-21T08:58:20.131Z,1.92
2023-05-21T09:00:46.770Z,1.58
2023-05-21T09:03:14.611Z,1.70
2023-05-21T09:05:43.295Z,1.73
2023-05-21T09:08:14.387Z,1.80
2023-05-21T09:11:01.201Z,1.67
2023-05-21T09:13:32.911Z,1.50
2023-05-21T09:16:03.587Z,1.50
2023-05-21T09:18:30.204Z,1.70
2023-05-21T09:21:30.043Z,2.13
2023-05-21T09:24:11.694Z,1.85
2023-05-21T09:26:38.446Z,1.80
2023-05-21T09:29:06.708Z,1.70
2023-05-21T09:31:33.331Z,1.63
2023-05-21T09:34:01.078Z,1.70
2023-05-21T09:36:29.560Z,1.83
2023-05-21T09:38:58.400Z,1.90
2023-05-21T09:41:31.468Z,1.80
2023-05-21T09:44:01.737Z,1.90
2023-05-21T09:46:37.654Z,1.95
2023-05-21T09:49:04.278Z,1.90
2023-05-21T09:51:32.231Z,1.73
2023-05-21T09:53:58.869Z,1.70
2023-05-21T09:56:26.445Z,1.70
2023-05-21T09:58:57.022Z,1.65
2023-05-21T10:01:24.169Z,1.75
2023-05-21T10:03:58.214Z,1.80
2023-05-21T10:06:26.422Z,1.80
2023-05-21T10:08:54.094Z,1.77
2023-05-21T10:11:22.881Z,1.73
2023-05-21T10:13:53.497Z,1.60
2023-05-21T10:16:20.132Z,1.85
2023-05-21T10:18:47.147Z,1.80
2023-05-21T10:21:13.869Z,1.80
2023-05-21T10:23:41.791Z,1.90
2023-05-21T10:26:08.392Z,2.00
2023-05-21T10:28:34.977Z,1.92
2023-05-21T10:31:03.724Z,1.90
2023-05-21T10:33:30.616Z,1.98
2023-05-21T10:35:58.546Z,1.83
2023-05-21T10:38:25.115Z,1.80
2023-05-21T10:40:52.765Z,1.80
2023-05-21T10:43:25.568Z,2.00
2023-05-21T10:45:55.194Z,1.80
2023-05-21T10:48:30.801Z,1.73
2023-05-21T10:51:01.731Z,2.00
2023-05-21T10:53:28.214Z,2.00
2023-05-21T10:56:13.594Z,1.98
2023-05-21T11:01:09.278Z,1.90
2023-05-21T11:03:37.913Z,2.15
2023-05-21T11:06:09.274Z,1.90
2023-05-21T11:08:37.155Z,1.92
2023-05-21T11:11:04.085Z,1.88
2023-05-21T11:13:50.864Z,2.08
2023-05-21T11:16:17.958Z,1.85
2023-05-21T11:18:47.374Z,2.13
2023-05-21T11:21:15.607Z,2.10
2023-05-21T11:23:51.653Z,2.00
2023-05-21T11:26:24.492Z,1.98
2023-05-21T11:29:06.188Z,2.05
2023-05-21T11:31:41.278Z,2.08
2023-05-21T11:34:11.124Z,2.05
2023-05-21T11:36:38.240Z,2.40
2023-05-21T11:39:17.670Z,2.30
2023-05-21T11:42:03.072Z,2.17
2023-05-21T11:44:40.366Z,2.33
2023-05-21T11:47:07.622Z,2.20
2023-05-21T11:49:34.904Z,2.15
2023-05-21T11:52:04.671Z,2.35
2023-05-21T11:54:37.247Z,2.30
2023-05-21T11:57:07.984Z,2.20
2023-05-21T11:59:35.100Z,2.40
2023-05-21T12:02:02.187Z,2.20
2023-05-21T12:04:32.139Z,2.28
2023-05-21T12:06:59.079Z,2.50
2023-05-21T12:09:25.669Z,2.10
2023-05-21T12:11:53.145Z,2.38
2023-05-21T12:14:21.422Z,2.30
2023-05-21T12:16:48.016Z,2.10
2023-05-21T12:19:17.343Z,2.20
2023-05-21T12:21:43.945Z,2.20
2023-05-21T12:24:11.002Z,2.40
2023-05-21T12:26:37.568Z,2.40
2023-05-21T12:29:04.708Z,2.22
2023-05-21T12:33:59.794Z,2.33
2023-05-21T12:36:27.010Z,2.42
2023-05-21T12:38:53.785Z,2.33
2023-05-21T12:41:22.124Z,2.45
2023-05-21T12:43:49.252Z,2.60
2023-05-21T12:48:52.819Z,2.40
2023-05-21T12:51:19.815Z,2.45
2023-05-21T12:53:46.593Z,2.60
2023-05-21T12:56:13.693Z,2.40
2023-05-21T13:01:13.320Z,2.70
2023-05-21T13:03:44.309Z,2.50
2023-05-21T13:06:11.116Z,2.60
2023-05-21T13:08:38.002Z,2.80
2023-05-21T13:11:04.685Z,2.55
2023-05-21T13:13:31.301Z,2.60
2023-05-21T13:16:00.637Z,2.78
2023-05-21T13:18:27.533Z,2.53
2023-05-21T13:20:54.199Z,2.50
2023-05-21T13:23:21.124Z,2.67
2023-05-21T13:25:47.751Z,2.75
2023-05-21T13:28:15.445Z,3.03
2023-05-21T13:30:42.158Z,2.80
2023-05-21T13:33:09.021Z,2.80
2023-05-21T13:35:38.077Z,2.83
2023-05-21T13:38:07.588Z,2.75
2023-05-21T13:40:35.441Z,2.90
2023-05-21T13:43:05.448Z,3.03
2023-05-21T13:45:32.078Z,2.83
2023-05-21T13:47:58.855Z,2.90
2023-05-21T13:50:25.555Z,2.75
2023-05-21T13:52:52.064Z,2.75
2023-05-21T13:55:18.931Z,3.00
2023-05-21T13:57:46.176Z,2.83
2023-05-21T14:00:15.328Z,2.83
2023-05-21T14:02:43.161Z,3.03
2023-05-21T14:05:10.560Z,2.80
2023-05-21T14:07:37.373Z,3.20
2023-05-21T14:10:04.137Z,2.75
2023-05-21T14:12:31.216Z,2.70
2023-05-21T14:14:57.808Z,2.90
2023-05-21T14:17:24.647Z,2.95
2023-05-21T14:19:51.368Z,2.83
2023-05-21T14:22:17.938Z,2.78
2023-05-21T14:24:44.532Z,3.00
2023-05-21T14:27:13.919Z,2.80
2023-05-21T14:29:42.192Z,2.85
2023-05-21T14:32:08.856Z,3.03
2023-05-21T14:34:35.448Z,2.90
2023-05-21T14:37:02.037Z,2.92
2023-05-21T14:39:28.785Z,2.88
2023-05-21T14:41:55.465Z,3.00
2023-05-21T14:44:22.113Z,2.92
2023-05-21T14:46:48.860Z,2.95
2023-05-21T14:49:15.464Z,3.15
2023-05-21T14:51:43.648Z,2.90
2023-05-21T14:54:10.259Z,2.90
2023-05-21T14:56:36.816Z,2.90
2023-05-21T14:59:04.541Z,2.75
2023-05-21T15:01:32.868Z,2.90
2023-05-21T15:03:59.644Z,3.03
2023-05-21T15:06:26.697Z,3.10
2023-05-21T15:08:53.335Z,3.28
2023-05-21T15:11:19.848Z,2.88
2023-05-21T15:13:46.495Z,3.03
2023-05-21T15:16:13.150Z,3.20
2023-05-21T15:18:39.682Z,3.05
2023-05-21T15:21:06.253Z,3.13
2023-05-21T15:23:32.724Z,2.70
2023-05-21T15:25:59.252Z,2.90
2023-05-21T15:28:25.793Z,2.75
2023-05-21T15:30:52.742Z,3.05
2023-05-21T15:33:19.519Z,2.70
2023-05-21T15:35:46.619Z,2.92
2023-05-21T15:40:42.077Z,3.10
2023-05-21T15:43:08.750Z,3.00
2023-05-21T15:45:35.555Z,2.67
2023-05-21T15:48:02.245Z,2.80
2023-05-21T15:50:28.744Z,2.55
2023-05-21T15:52:55.305Z,2.80
2023-05-21T15:55:26.097Z,2.85
2023-05-21T15:57:52.717Z,2.53
2023-05-21T16:00:19.424Z,2.47
2023-05-21T16:02:46.008Z,2.63
2023-05-21T16:05:12.677Z,2.72
2023-05-21T16:07:41.748Z,2.92
2023-05-21T16:10:09.641Z,2.72
2023-05-21T16:12:36.630Z,2.70
2023-05-21T16:15:03.448Z,2.50
2023-05-21T16:17:30.227Z,2.60
2023-05-21T16:19:56.895Z,2.53
2023-05-21T16:22:24.048Z,2.55
2023-05-21T16:27:17.327Z,2.47
2023-05-21T16:29:44.556Z,2.65
2023-05-21T16:34:39.823Z,2.60
2023-05-21T16:37:08.645Z,2.55
2023-05-21T16:39:35.574Z,2.90
2023-05-21T16:42:02.164Z,2.55
2023-05-21T16:44:28.685Z,3.08
2023-05-21T16:46:55.532Z,3.30
2023-05-21T16:49:22.229Z,3.45
2023-05-21T16:51:48.832Z,3.08
2023-05-21T16:54:15.403Z,3.20
2023-05-21T16:56:42.010Z,3.20
2023-05-21T16:59:08.549Z,2.83
2023-05-21T17:01:35.223Z,2.88
2023-05-21T17:04:02.136Z,2.53
2023-05-21T17:06:28.867Z,3.15
2023-05-21T17:08:56.544Z,3.03
2023-05-21T17:11:23.068Z,2.88
2023-05-21T17:13:49.674Z,3.00
2023-05-21T17:16:16.294Z,2.85
2023-05-21T17:18:42.877Z,2.80
2023-05-21T17:21:09.671Z,3.15
2023-05-21T17:23:36.313Z,2.95
2023-05-21T17:26:02.869Z,3.00
2023-05-21T17:28:29.420Z,2.60
2023-05-21T17:30:56.353Z,2.90
2023-05-21T17:33:23.926Z,2.72
2023-05-21T17:35:50.533Z,2.90
2023-05-21T17:38:17.194Z,2.70
2023-05-21T17:40:43.693Z,3.13
2023-05-21T17:43:10.223Z,3.00
2023-05-21T17:45:36.998Z,2.60
2023-05-21T17:48:03.969Z,2.80
2023-05-21T17:50:30.597Z,2.50
2023-05-21T17:52:57.373Z,2.78
2023-05-21T17:55:23.959Z,2.67
2023-05-21T17:57:52.556Z,2.53
2023-05-21T18:00:19.441Z,2.70
2023-05-21T18:02:46.285Z,2.70
2023-05-21T18:05:13.091Z,2.50
2023-05-21T18:07:39.617Z,2.70
2023-05-21T18:10:06.936Z,2.70
2023-05-21T18:12:33.422Z,2.58
2023-05-21T18:15:01.843Z,2.53
2023-05-21T18:17:28.485Z,2.60
2023-05-21T18:19:55.019Z,2.65
2023-05-21T18:22:21.664Z,2.85
2023-05-21T18:24:48.188Z,2.50
2023-05-21T18:27:15.473Z,2.40
2023-05-21T18:32:08.899Z,2.65
2023-05-21T18:34:35.482Z,2.63
2023-05-21T18:37:02.016Z,2.70
2023-05-21T18:39:28.704Z,2.78
2023-05-21T18:42:08.902Z,2.70
2023-05-21T18:44:39.648Z,2.80
2023-05-21T18:47:07.755Z,2.60
2023-05-21T18:49:36.004Z,2.42
2023-05-21T18:52:03.253Z,2.60
2023-05-21T18:54:29.724Z,2.63
2023-05-21T18:56:59.610Z,2.83
2023-05-21T18:59:26.881Z,2.70
2023-05-21T19:04:20.425Z,2.40
2023-05-21T19:06:47.232Z,2.65
2023-05-21T19:09:16.975Z,2.47
2023-05-21T19:11:43.806Z,2.97
2023-05-21T19:14:10.832Z,2.45
2023-05-21T19:16:37.526Z,2.70
2023-05-21T19:19:04.380Z,2.55
2023-05-21T19:21:31.522Z,2.45
2023-05-21T19:23:58.469Z,2.75
2023-05-21T19:26:25.171Z,2.72
2023-05-21T19:28:53.408Z,2.78
2023-05-21T19:31:21.134Z,2.60
2023-05-21T19:33:47.768Z,2.70
2023-05-21T19:36:14.601Z,2.65
2023-05-21T19:38:48.321Z,2.40
2023-05-21T19:41:18.139Z,2.65
2023-05-21T19:43:45.249Z,2.70
2023-05-21T19:46:11.920Z,2.72
2023-05-21T19:48:38.703Z,2.88
2023-05-21T19:51:05.482Z,2.85
2023-05-21T19:53:32.072Z,2.70
2023-05-21T19:55:58.849Z,2.78
2023-05-21T19:58:27.635Z,2.95
2023-05-21T20:00:55.827Z,2.75
2023-05-21T20:03:22.530Z,2.80
2023-05-21T20:05:49.433Z,3.03
2023-05-21T20:08:16.478Z,2.90
2023-05-21T20:10:43.095Z,2.72
2023-05-21T20:13:09.767Z,2.95
2023-05-21T20:15:36.295Z,2.95
2023-05-21T20:18:02.880Z,2.80
2023-05-21T20:20:29.644Z,2.90
2023-05-21T20:22:58.080Z,2.70
2023-05-21T20:25:24.720Z,2.97
2023-05-21T20:27:51.477Z,2.92
2023-05-21T20:30:18.060Z,2.75
2023-05-21T20:32:44.756Z,2.58
2023-05-21T20:35:11.423Z,2.80
2023-05-21T20:37:38.003Z,2.80
2023-05-21T20:40:06.648Z,2.83
2023-05-21T20:42:36.582Z,2.83
2023-05-21T20:45:03.851Z,2.80
2023-05-21T20:47:30.395Z,2.85
2023-05-21T20:49:57.859Z,2.80
2023-05-21T20:52:25.668Z,2.97
2023-05-21T20:54:59.518Z,2.58
2023-05-21T20:57:28.573Z,2.60
2023-05-21T20:59:55.171Z,2.42
2023-05-21T21:02:22.910Z,2.60
2023-05-21T21:04:53.249Z,2.92
2023-05-21T21:07:19.852Z,2.80
2023-05-21T21:09:47.288Z,2.58
2023-05-21T21:12:25.272Z,2.72
2023-05-21T21:14:53.073Z,2.70
2023-05-21T21:17:19.641Z,2.50
2023-05-21T21:19:46.241Z,2.90
2023-05-21T21:22:12.817Z,2.40
2023-05-21T21:24:39.375Z,2.67
2023-05-21T21:27:06.645Z,2.67
2023-05-21T21:31:59.738Z,2.30
2023-05-21T21:34:26.508Z,2.55
2023-05-21T21:36:53.842Z,2.60
2023-05-21T21:41:47.307Z,2.78
2023-05-21T21:44:13.862Z,2.60
2023-05-21T21:46:40.537Z,2.70
2023-05-21T21:49:07.004Z,2.40
2023-05-21T21:51:33.979Z,2.58
2023-05-21T21:54:00.817Z,2.22
2023-05-21T21:56:27.318Z,2.60
2023-05-21T21:58:53.817Z,2.58
2023-05-21T22:01:20.358Z,2.47
2023-05-21T22:03:46.993Z,2.70
2023-05-21T22:06:13.577Z,2.80
2023-05-21T22:08:40.154Z,2.50
2023-05-21T22:11:06.659Z,2.70
2023-05-21T22:13:34.372Z,2.30
2023-05-21T22:16:02.064Z,2.60
2023-05-21T22:18:40.307Z,2.28
2023-05-21T22:21:14.416Z,2.42
2023-05-21T22:23:41.197Z,2.58
2023-05-21T22:26:07.732Z,2.40
2023-05-21T22:28:34.467Z,2.40
2023-05-21T22:31:01.324Z,2.40
2023-05-21T22:33:29.215Z,2.50
2023-05-21T22:35:55.711Z,2.45
2023-05-21T22:38:22.234Z,2.58
2023-05-21T22:43:15.977Z,2.50
2023-05-21T22:45:42.997Z,2.47
2023-05-21T22:48:09.767Z,2.58
2023-05-21T22:50:38.387Z,2.35
2023-05-21T22:53:05.765Z,2.50
2023-05-21T22:55:32.311Z,2.47
2023-05-21T22:57:58.878Z,2.58
2023-05-21T23:00:26.102Z,2.40
2023-05-21T23:02:54.319Z,2.30
2023-05-21T23:05:21.473Z,2.75
2023-05-21T23:07:48.060Z,2.50
2023-05-21T23:10:14.621Z,2.40
2023-05-21T23:12:41.338Z,2.42
2023-05-21T23:15:09.902Z,2.60
2023-05-21T23:17:39.736Z,2.50
2023-05-21T23:20:07.437Z,2.70
2023-05-21T23:22:34.456Z,2.30
2023-05-21T23:25:00.988Z,2.50
2023-05-21T23:27:27.544Z,2.60
2023-05-21T23:29:55.690Z,2.35
2023-05-21T23:32:23.310Z,2.50
2023-05-21T23:34:49.890Z,2.90
2023-05-21T23:37:16.380Z,2.35
2023-05-21T23:39:45.697Z,2.20
2023-05-21T23:42:12.201Z,2.30
2023-05-21T23:44:38.870Z,2.58
2023-05-21T23:47:05.436Z,2.70
2023-05-21T23:49:32.014Z,2.55
2023-05-21T23:51:58.779Z,2.60
2023-05-21T23:54:25.326Z,2.63
2023-05-21T23:56:51.906Z,2.50
2023-05-21T23:59:18.707Z,2.60
